Aérodrome :
LOGIN :

S'inscrire | Disclaimer

   EN    FR    IT 

 










Légende :    VFR   VFR Marginal   IFR   IFR Intensif   IFR Très Intensif
Visi : 
Plafond : 
>= 8 km
>= 3000ft
5 à 8 km
1000 à 3000 ft
1500m à 5 km
500 à 1000 ft
800 à 1500m
200 à 500 ft
< 800m
< 200 ft
Symboles :   Orages  Brouillard  Fortes neiges  Fortes précipitations  Vent > 20 kt
SIGMETs :   Divers  Orages  Givrage  Turbulence  Onde Orograph.  Cendres Volcan.






- Altitude de l'aérodrome : 584 ft


LFPV - Villacoublay Vélizy

DERNIER METAR :
  • 230200Z AUTO 06006KT 9999 FEW019 BKN088 OVC120 11/10 Q1017 NOSIG

METARs EXPIRÉS :
  • 230130Z AUTO 05008KT CAVOK 11/10 Q1017 NOSIG
  • 230100Z AUTO 04009KT CAVOK 11/10 Q1017 NOSIG
  • 230030Z AUTO 03009KT CAVOK 10/09 Q1017 NOSIG
  • 230000Z AUTO 03009KT 9999 FEW006 BKN072 OVC084 10/10 Q1018 NOSIG
  • 222330Z AUTO 03007KT 9999 FEW043 BKN058 OVC070 11/09 Q1018 NOSIG

TAF TAF LFPV
Valide du 22 à 21h jusqu'au 23 à 21h UTC


222000Z 2221/2321 03010KT 9999 SCT007 OVC095
PROB40
TEMPO 2306/2312 BKN003
BECMG 2309/2311 13005KT
BECMG 2312/2314 SCT016



MET'MAP, la Météo Aéronautique d'un coup d'oeil ! - Copyright ORBIFLY Décembre 2007 - Disclaimer

ORBIFLY MET'MAP TEAM :

Programmation & Développement : Alexandra Zaïnal
Conception & Développement : Baudouin d'Aumeries
Co-Programmation & Développement : Marc-Olivier Méhu
Soutien technique & logistique : Manuel Goepfert

Contact : metmap@orbifly.com




SOURCES & CREDITS :

   NOAA